Time;durP1;ratioP1;P1;durP2;ratioP2;P2;SDS_P1;SDS_P2;PMS_P1;PMS_P2;Temp;Humidity;BMP_temperature;BMP_pressure;BME280_temperature;BME280_humidity;BME280_pressure;Samples;Min_cycle;Max_cycle;Signal;HPM_P1;HPM_P2
2023/11/22 00:01:34;;;;;;;90.03;7.05;;;;;;;;;;4956870;28;20476;-52
2023/11/22 00:04:00;;;;;;;164.75;8.88;;;;;;;;;;4956101;28;20124;-57
2023/11/22 00:06:27;;;;;;;122.68;7.65;;;;;;;;;;4957896;28;20050;-58
2023/11/22 00:08:52;;;;;;;103.32;7.55;;;;;;;;;;4957401;28;20115;-54
2023/11/22 00:11:17;;;;;;;119.25;8.25;;;;;;;;;;4955783;28;20046;-54
2023/11/22 00:13:42;;;;;;;116.07;7.85;;;;;;;;;;4957347;28;20110;-53
2023/11/22 00:16:08;;;;;;;117.07;6.97;;;;;;;;;;4956440;28;20304;-53
2023/11/22 00:18:34;;;;;;;117.50;8.02;;;;;;;;;;4957586;28;20434;-55
2023/11/22 00:20:59;;;;;;;121.50;8.73;;;;;;;;;;4955539;28;20458;-55
2023/11/22 00:23:28;;;;;;;92.90;6.40;;;;;;;;;;4957972;28;20077;-56
2023/11/22 00:25:54;;;;;;;132.40;10.82;;;;;;;;;;4939067;28;20082;-55
2023/11/22 00:28:19;;;;;;;98.30;7.03;;;;;;;;;;4956554;28;20046;-55
2023/11/22 00:30:44;;;;;;;87.30;7.20;;;;;;;;;;4956871;28;20110;-54
2023/11/22 00:33:10;;;;;;;137.85;8.98;;;;;;;;;;4954742;28;20050;-54
2023/11/22 00:35:35;;;;;;;101.00;6.93;;;;;;;;;;4958305;28;20031;-56
2023/11/22 00:38:01;;;;;;;117.32;8.07;;;;;;;;;;4957305;28;20023;-55
2023/11/22 00:40:26;;;;;;;114.82;7.82;;;;;;;;;;4957467;28;20031;-56
2023/11/22 00:42:51;;;;;;;105.90;7.60;;;;;;;;;;4957654;28;20018;-56
2023/11/22 00:45:18;;;;;;;134.77;8.17;;;;;;;;;;4955168;28;20025;-57
2023/11/22 00:47:43;;;;;;;113.55;6.75;;;;;;;;;;4957551;28;20333;-56
2023/11/22 00:50:08;;;;;;;129.95;8.40;;;;;;;;;;4955315;28;20030;-54
2023/11/22 00:52:34;;;;;;;103.20;6.75;;;;;;;;;;4957979;28;20022;-54
2023/11/22 00:55:00;;;;;;;140.10;8.20;;;;;;;;;;4956878;28;20054;-55
2023/11/22 00:57:26;;;;;;;89.90;6.97;;;;;;;;;;4956011;28;20186;-55
2023/11/22 00:59:53;;;;;;;140.20;9.45;;;;;;;;;;4957258;28;20573;-55
2023/11/22 01:02:18;;;;;;;115.82;7.80;;;;;;;;;;4956624;28;20046;-56
2023/11/22 01:04:44;;;;;;;96.00;7.50;;;;;;;;;;4956646;28;20097;-56
2023/11/22 01:07:09;;;;;;;142.23;9.57;;;;;;;;;;4954907;28;20042;-55
2023/11/22 01:09:34;;;;;;;102.57;7.35;;;;;;;;;;4957389;28;20254;-53
2023/11/22 01:12:00;;;;;;;84.75;6.45;;;;;;;;;;4956431;28;20042;-53
2023/11/22 01:14:29;;;;;;;122.70;7.18;;;;;;;;;;4956477;28;20027;-53
2023/11/22 01:16:54;;;;;;;100.38;7.25;;;;;;;;;;4955726;28;20042;-56
2023/11/22 01:19:20;;;;;;;182.20;42.25;;;;;;;;;;4967710;28;20041;-55
2023/11/22 01:21:45;;;;;;;167.85;13.25;;;;;;;;;;4974908;28;20043;-56
2023/11/22 01:24:11;;;;;;;129.05;7.93;;;;;;;;;;4976659;28;20641;-53
2023/11/22 01:26:36;;;;;;;100.10;7.77;;;;;;;;;;4977376;28;20050;-56
2023/11/22 01:29:02;;;;;;;153.02;9.75;;;;;;;;;;4976462;28;20245;-55
2023/11/22 01:31:28;;;;;;;86.10;5.25;;;;;;;;;;4977834;28;20049;-55
2023/11/22 01:33:53;;;;;;;115.55;7.78;;;;;;;;;;4977287;28;20441;-54
2023/11/22 01:36:19;;;;;;;165.85;12.15;;;;;;;;;;4975949;28;20481;-55
2023/11/22 01:38:44;;;;;;;82.00;7.13;;;;;;;;;;4976887;28;20113;-56
2023/11/22 01:41:12;;;;;;;159.15;9.80;;;;;;;;;;4975260;28;20381;-55
2023/11/22 01:43:39;;;;;;;110.55;7.50;;;;;;;;;;4975654;28;20018;-55
2023/11/22 01:46:05;;;;;;;107.97;7.53;;;;;;;;;;4955564;28;20557;-55
2023/11/22 01:48:32;;;;;;;125.53;6.80;;;;;;;;;;4976958;28;20056;-55
2023/11/22 01:50:57;;;;;;;105.60;7.72;;;;;;;;;;4975672;28;20041;-55
2023/11/22 01:53:22;;;;;;;95.15;7.03;;;;;;;;;;4976182;28;20106;-56
2023/11/22 01:55:48;;;;;;;130.05;9.00;;;;;;;;;;4974928;28;20498;-56
2023/11/22 01:58:13;;;;;;;128.50;9.05;;;;;;;;;;4973916;28;20501;-56
2023/11/22 02:00:51;;;;;;;110.22;7.63;;;;;;;;;;4976728;28;20042;-56
2023/11/22 02:03:16;;;;;;;130.55;8.85;;;;;;;;;;4976314;28;20556;-54
2023/11/22 02:05:42;;;;;;;86.65;7.68;;;;;;;;;;4975927;28;20047;-54
2023/11/22 02:08:10;;;;;;;158.82;11.00;;;;;;;;;;4976183;28;20033;-55
2023/11/22 02:10:36;;;;;;;81.10;7.25;;;;;;;;;;4975753;28;20038;-56
2023/11/22 02:13:04;;;;;;;93.53;6.90;;;;;;;;;;4975868;28;20225;-53
2023/11/22 02:15:30;;;;;;;111.47;7.93;;;;;;;;;;4975658;28;20046;-53
2023/11/22 02:17:55;;;;;;;87.70;6.55;;;;;;;;;;4976338;28;20342;-54
2023/11/22 02:20:20;;;;;;;150.43;9.32;;;;;;;;;;4976117;28;20438;-57
2023/11/22 02:22:47;;;;;;;139.17;9.63;;;;;;;;;;4975252;28;20030;-55
2023/11/22 02:25:12;;;;;;;107.03;7.78;;;;;;;;;;4975802;28;20280;-55
2023/11/22 02:27:37;;;;;;;92.07;7.82;;;;;;;;;;4976165;28;20030;-56
2023/11/22 02:30:05;;;;;;;163.30;10.37;;;;;;;;;;4975464;28;20049;-55
2023/11/22 02:32:30;;;;;;;114.72;8.65;;;;;;;;;;4976075;28;20270;-56
2023/11/22 02:34:56;;;;;;;101.55;7.60;;;;;;;;;;4978842;28;20578;-56
2023/11/22 02:37:21;;;;;;;179.00;9.93;;;;;;;;;;4978265;28;20040;-54
2023/11/22 02:40:00;;;;;;;85.63;7.13;;;;;;;;;;4980096;28;20026;-55
2023/11/22 02:42:26;;;;;;;130.88;8.98;;;;;;;;;;4977736;28;20117;-55
2023/11/22 02:44:51;;;;;;;86.28;6.43;;;;;;;;;;4979382;28;20218;-56
2023/11/22 02:47:16;;;;;;;107.03;7.72;;;;;;;;;;4979102;28;20040;-54
2023/11/22 02:49:42;;;;;;;141.93;9.50;;;;;;;;;;4979025;28;20234;-56
2023/11/22 02:52:07;;;;;;;112.05;8.35;;;;;;;;;;4978776;28;20043;-55
2023/11/22 02:54:32;;;;;;;104.07;7.93;;;;;;;;;;4979016;28;20058;-55
2023/11/22 02:56:57;;;;;;;141.43;8.67;;;;;;;;;;4978800;28;20421;-56
2023/11/22 02:59:23;;;;;;;100.07;7.65;;;;;;;;;;4979583;28;22587;-54
2023/11/22 03:01:48;;;;;;;92.15;6.85;;;;;;;;;;4979341;28;20145;-55
2023/11/22 03:04:13;;;;;;;155.60;10.13;;;;;;;;;;4978003;28;20465;-54
2023/11/22 03:06:39;;;;;;;106.28;8.02;;;;;;;;;;4961872;28;20046;-54
2023/11/22 03:09:04;;;;;;;110.55;7.68;;;;;;;;;;4979438;28;20030;-55
2023/11/22 03:11:29;;;;;;;148.05;9.30;;;;;;;;;;4978301;28;20468;-55
2023/11/22 03:13:55;;;;;;;124.82;8.35;;;;;;;;;;4978640;28;20050;-56
2023/11/22 03:16:20;;;;;;;140.95;8.90;;;;;;;;;;4978066;28;20541;-56
2023/11/22 03:18:46;;;;;;;1078.10;71.32;;;;;;;;;;4978593;28;20034;-56
2023/11/22 03:21:11;;;;;;;146.05;9.75;;;;;;;;;;4978007;28;20085;-56
2023/11/22 03:23:36;;;;;;;102.28;7.47;;;;;;;;;;4978758;28;20026;-57
2023/11/22 03:26:03;;;;;;;144.80;8.57;;;;;;;;;;4978707;28;20031;-56
2023/11/22 03:28:30;;;;;;;97.25;9.23;;;;;;;;;;4978323;28;20022;-56
2023/11/22 03:30:55;;;;;;;143.40;9.07;;;;;;;;;;4977819;28;20538;-56
2023/11/22 03:33:20;;;;;;;119.38;7.95;;;;;;;;;;4978026;28;20330;-55
2023/11/22 03:35:46;;;;;;;77.30;6.35;;;;;;;;;;4978612;28;20233;-56
2023/11/22 03:38:11;;;;;;;144.23;9.80;;;;;;;;;;4978187;28;21338;-56
2023/11/22 03:40:36;;;;;;;83.43;6.55;;;;;;;;;;4978013;28;20042;-55
2023/11/22 03:43:01;;;;;;;103.15;7.32;;;;;;;;;;4978762;28;20018;-54
2023/11/22 03:45:27;;;;;;;115.82;8.35;;;;;;;;;;4974265;28;20096;-54
2023/11/22 03:47:52;;;;;;;91.43;7.25;;;;;;;;;;4978897;28;20081;-54
2023/11/22 03:50:18;;;;;;;146.73;8.18;;;;;;;;;;4976764;28;20030;-55
2023/11/22 03:52:43;;;;;;;138.85;8.73;;;;;;;;;;4977659;28;20312;-56
2023/11/22 03:55:09;;;;;;;104.50;8.02;;;;;;;;;;4977415;28;20031;-57
2023/11/22 03:57:35;;;;;;;104.63;7.32;;;;;;;;;;4977624;28;20521;-56
2023/11/22 04:00:00;;;;;;;158.38;9.18;;;;;;;;;;4976747;28;20389;-56
2023/11/22 04:02:27;;;;;;;83.63;7.03;;;;;;;;;;4977464;28;20030;-57
2023/11/22 04:04:52;;;;;;;99.88;7.68;;;;;;;;;;4977899;28;20022;-54
2023/11/22 04:07:18;;;;;;;133.80;9.07;;;;;;;;;;4976910;28;20092;-54
2023/11/22 04:09:44;;;;;;;89.28;5.90;;;;;;;;;;4978433;28;20685;-55
2023/11/22 04:12:09;;;;;;;128.68;9.13;;;;;;;;;;4976570;28;20102;-56
2023/11/22 04:14:34;;;;;;;100.30;7.45;;;;;;;;;;4977792;28;20618;-56
2023/11/22 04:16:59;;;;;;;108.80;7.95;;;;;;;;;;4977631;28;20458;-55
2023/11/22 04:19:25;;;;;;;141.93;9.10;;;;;;;;;;4977750;28;20566;-54
2023/11/22 04:21:50;;;;;;;93.45;7.20;;;;;;;;;;4978029;28;20640;-55
2023/11/22 04:24:15;;;;;;;105.20;7.55;;;;;;;;;;4976825;28;20079;-58
2023/11/22 04:26:41;;;;;;;120.88;8.57;;;;;;;;;;4977681;28;20084;-56
2023/11/22 04:29:06;;;;;;;113.55;8.13;;;;;;;;;;4977567;28;20022;-56
2023/11/22 04:31:31;;;;;;;84.30;7.13;;;;;;;;;;4977156;28;20066;-55
2023/11/22 04:34:00;;;;;;;128.07;8.77;;;;;;;;;;4977154;28;20026;-57
2023/11/22 04:36:25;;;;;;;145.50;9.05;;;;;;;;;;4976416;28;20137;-57
2023/11/22 04:38:50;;;;;;;83.45;7.22;;;;;;;;;;4977590;28;20110;-57
2023/11/22 04:41:16;;;;;;;162.77;9.85;;;;;;;;;;4976367;28;20068;-54
2023/11/22 04:43:41;;;;;;;91.57;7.30;;;;;;;;;;4977556;28;20429;-57
2023/11/22 04:46:08;;;;;;;101.40;7.45;;;;;;;;;;4976501;28;20034;-54
2023/11/22 04:48:33;;;;;;;119.10;7.68;;;;;;;;;;4978189;28;20438;-56
2023/11/22 04:50:59;;;;;;;101.85;7.85;;;;;;;;;;4976421;28;20501;-55
2023/11/22 04:53:24;;;;;;;116.03;8.20;;;;;;;;;;4959557;28;20081;-55
2023/11/22 04:55:49;;;;;;;124.18;8.65;;;;;;;;;;4976960;28;20427;-56
2023/11/22 04:58:14;;;;;;;155.02;10.10;;;;;;;;;;4976087;28;20026;-57
2023/11/22 05:00:40;;;;;;;91.47;5.85;;;;;;;;;;4977223;28;20121;-56
2023/11/22 05:03:05;;;;;;;114.85;8.00;;;;;;;;;;4977071;28;20022;-56
2023/11/22 05:05:31;;;;;;;77.68;6.68;;;;;;;;;;4976193;28;20117;-54
2023/11/22 05:07:56;;;;;;;133.15;15.13;;;;;;;;;;4977436;28;20453;-56
2023/11/22 05:10:21;;;;;;;165.40;10.02;;;;;;;;;;4975510;28;20327;-55
2023/11/22 05:12:46;;;;;;;98.20;7.63;;;;;;;;;;4977326;28;20022;-56
2023/11/22 05:15:12;;;;;;;112.43;8.35;;;;;;;;;;4975650;28;20421;-55
2023/11/22 05:17:37;;;;;;;100.43;8.20;;;;;;;;;;4976973;28;20018;-57
2023/11/22 05:20:04;;;;;;;115.95;8.57;;;;;;;;;;4976560;28;20026;-56
2023/11/22 05:22:29;;;;;;;115.38;7.65;;;;;;;;;;4974340;28;20105;-56
2023/11/22 05:24:56;;;;;;;107.55;8.35;;;;;;;;;;4976533;28;20171;-56
2023/11/22 05:27:21;;;;;;;127.55;8.95;;;;;;;;;;4975636;28;20478;-56
2023/11/22 05:29:46;;;;;;;128.18;8.70;;;;;;;;;;4976649;28;20638;-57
2023/11/22 05:32:12;;;;;;;123.50;9.73;;;;;;;;;;4975137;28;20042;-57
2023/11/22 05:34:39;;;;;;;88.68;8.30;;;;;;;;;;4976909;28;20026;-54
2023/11/22 05:37:05;;;;;;;127.45;8.50;;;;;;;;;;4976130;28;20035;-55
2023/11/22 05:39:31;;;;;;;72.00;7.57;;;;;;;;;;4975709;28;20340;-56
2023/11/22 05:41:56;;;;;;;88.43;7.75;;;;;;;;;;4975785;28;20046;-55
2023/11/22 05:44:21;;;;;;;135.15;10.07;;;;;;;;;;4974732;28;20040;-56
2023/11/22 05:46:47;;;;;;;87.28;7.78;;;;;;;;;;4975821;28;20274;-55
2023/11/22 05:49:12;;;;;;;91.20;7.38;;;;;;;;;;4974364;28;20101;-54
2023/11/22 05:51:37;;;;;;;108.82;9.43;;;;;;;;;;4975305;28;20540;-56
2023/11/22 05:54:03;;;;;;;121.43;10.30;;;;;;;;;;4976668;28;20396;-58
2023/11/22 05:56:28;;;;;;;145.07;10.52;;;;;;;;;;4975380;28;20053;-57
2023/11/22 05:58:54;;;;;;;149.18;10.20;;;;;;;;;;4976141;28;20030;-56
2023/11/22 06:01:19;;;;;;;136.60;11.65;;;;;;;;;;4957628;28;20092;-56
2023/11/22 06:03:44;;;;;;;89.20;7.47;;;;;;;;;;4977149;28;20034;-55
2023/11/22 06:06:09;;;;;;;160.80;10.57;;;;;;;;;;4974835;28;20070;-57
2023/11/22 06:08:35;;;;;;;85.63;8.40;;;;;;;;;;4975183;28;20049;-56
2023/11/22 06:11:00;;;;;;;96.78;8.13;;;;;;;;;;4978966;28;20441;-56
2023/11/22 06:13:26;;;;;;;165.85;12.15;;;;;;;;;;4978383;28;20053;-56
2023/11/22 06:15:51;;;;;;;110.63;8.90;;;;;;;;;;4979767;28;20026;-56
2023/11/22 06:18:17;;;;;;;130.93;10.85;;;;;;;;;;4978081;28;20062;-56
2023/11/22 06:20:42;;;;;;;123.68;10.43;;;;;;;;;;4978691;28;20084;-57
2023/11/22 06:23:08;;;;;;;100.90;7.18;;;;;;;;;;4979826;28;20092;-57
2023/11/22 06:25:33;;;;;;;100.97;8.75;;;;;;;;;;4978070;28;20039;-57
2023/11/22 06:27:59;;;;;;;144.63;11.38;;;;;;;;;;4978741;28;20368;-56
2023/11/22 06:30:25;;;;;;;148.80;11.57;;;;;;;;;;4976995;28;20030;-57
2023/11/22 06:32:50;;;;;;;108.63;8.50;;;;;;;;;;4978383;28;20054;-57
2023/11/22 06:35:17;;;;;;;107.07;9.75;;;;;;;;;;4977822;28;20379;-57
2023/11/22 06:37:43;;;;;;;104.90;9.30;;;;;;;;;;4980249;28;20085;-57
2023/11/22 06:40:08;;;;;;;152.82;10.82;;;;;;;;;;4977949;28;20123;-57
2023/11/22 06:42:33;;;;;;;116.32;8.85;;;;;;;;;;4977107;28;20069;-55
2023/11/22 06:45:00;;;;;;;108.25;10.85;;;;;;;;;;4978336;28;20619;-54
2023/11/22 06:47:25;;;;;;;157.52;14.82;;;;;;;;;;4977421;28;20030;-57
2023/11/22 06:49:51;;;;;;;135.55;18.92;;;;;;;;;;4979526;28;20053;-56
2023/11/22 06:52:17;;;;;;;83.63;11.77;;;;;;;;;;4976944;28;20039;-56
2023/11/22 06:54:42;;;;;;;129.98;11.82;;;;;;;;;;4978802;28;20352;-56
2023/11/22 06:57:07;;;;;;;106.55;10.85;;;;;;;;;;4974621;28;20038;-56
2023/11/22 06:59:32;;;;;;;159.82;13.75;;;;;;;;;;4977175;28;20027;-57
2023/11/22 07:01:58;;;;;;;114.40;9.93;;;;;;;;;;4978175;28;20063;-57
2023/11/22 07:04:23;;;;;;;129.60;10.27;;;;;;;;;;4978294;28;20386;-56
2023/11/22 07:06:49;;;;;;;112.55;9.77;;;;;;;;;;4978537;28;20487;-54
2023/11/22 07:09:14;;;;;;;108.65;9.52;;;;;;;;;;4977550;28;20302;-52
2023/11/22 07:11:40;;;;;;;91.18;8.85;;;;;;;;;;4977747;28;20075;-53
2023/11/22 07:14:05;;;;;;;125.85;10.00;;;;;;;;;;4979320;28;20019;-56
2023/11/22 07:16:31;;;;;;;163.25;10.73;;;;;;;;;;4976562;28;20540;-54
2023/11/22 07:18:56;;;;;;;113.25;9.32;;;;;;;;;;4978334;28;20100;-56
2023/11/22 07:21:22;;;;;;;188.38;12.60;;;;;;;;;;4974773;28;20065;-55
2023/11/22 07:23:47;;;;;;;97.28;9.43;;;;;;;;;;4977596;28;20140;-56
2023/11/22 07:26:14;;;;;;;101.22;10.15;;;;;;;;;;4977033;28;20687;-55
2023/11/22 07:28:39;;;;;;;109.50;10.38;;;;;;;;;;4977652;28;20018;-56
2023/11/22 07:31:06;;;;;;;85.05;7.53;;;;;;;;;;4978055;28;20260;-54
2023/11/22 07:33:32;;;;;;;152.38;9.48;;;;;;;;;;4976893;28;20014;-56
2023/11/22 07:35:58;;;;;;;141.10;10.82;;;;;;;;;;4976661;28;20088;-54
2023/11/22 07:38:23;;;;;;;139.10;10.20;;;;;;;;;;4977470;28;20019;-57
2023/11/22 07:40:50;;;;;;;87.13;7.63;;;;;;;;;;4978404;28;20061;-55
2023/11/22 07:43:15;;;;;;;121.95;7.43;;;;;;;;;;4977056;28;20030;-56
2023/11/22 07:45:41;;;;;;;102.45;8.23;;;;;;;;;;4975967;28;20034;-61
2023/11/22 07:48:06;;;;;;;115.95;9.70;;;;;;;;;;4977474;28;20501;-54
2023/11/22 07:50:32;;;;;;;144.05;10.85;;;;;;;;;;4974840;28;20065;-55
2023/11/22 07:52:57;;;;;;;111.05;7.45;;;;;;;;;;4977748;28;20046;-57
2023/11/22 07:55:23;;;;;;;176.32;11.48;;;;;;;;;;4974255;28;20045;-53
2023/11/22 07:57:50;;;;;;;130.52;9.90;;;;;;;;;;4976380;28;20067;-55
2023/11/22 08:00:19;;;;;;;113.97;8.18;;;;;;;;;;4976267;28;20096;-57
2023/11/22 08:02:44;;;;;;;96.28;8.18;;;;;;;;;;4973074;28;20014;-57
2023/11/22 08:05:09;;;;;;;104.15;8.98;;;;;;;;;;4980008;28;20039;-54
2023/11/22 08:07:40;;;;;;;112.15;9.55;;;;;;;;;;4981947;28;20018;-55
2023/11/22 08:10:09;;;;;;;70.30;7.70;;;;;;;;;;4981491;28;20023;-56
2023/11/22 08:12:36;;;;;;;123.90;9.13;;;;;;;;;;4962990;28;20591;-56
2023/11/22 08:15:03;;;;;;;108.75;9.55;;;;;;;;;;4981331;28;20042;-56
2023/11/22 08:17:28;;;;;;;120.25;10.90;;;;;;;;;;4980451;28;20104;-56
2023/11/22 08:19:54;;;;;;;93.22;9.35;;;;;;;;;;4980930;28;20026;-56
2023/11/22 08:22:19;;;;;;;101.80;9.13;;;;;;;;;;4979367;28;20033;-54
2023/11/22 08:24:46;;;;;;;82.97;8.60;;;;;;;;;;4980841;28;20037;-54
2023/11/22 08:27:12;;;;;;;78.30;7.53;;;;;;;;;;4978621;28;20046;-56
2023/11/22 08:29:37;;;;;;;106.75;10.27;;;;;;;;;;4962650;28;20840;-56
2023/11/22 08:32:03;;;;;;;93.90;7.65;;;;;;;;;;4979817;28;20034;-56
2023/11/22 08:34:28;;;;;;;112.20;8.02;;;;;;;;;;4977864;28;20109;-58
2023/11/22 08:36:54;;;;;;;73.93;8.55;;;;;;;;;;4980404;28;20030;-54
2023/11/22 08:39:19;;;;;;;60.75;7.80;;;;;;;;;;4980430;28;20375;-54
2023/11/22 08:41:44;;;;;;;76.97;7.38;;;;;;;;;;4979384;28;20045;-56
2023/11/22 08:44:10;;;;;;;75.13;8.63;;;;;;;;;;4981406;28;20477;-54
2023/11/22 08:46:35;;;;;;;118.38;10.68;;;;;;;;;;4980152;28;20061;-54
2023/11/22 08:49:02;;;;;;;115.03;11.07;;;;;;;;;;4979918;28;20018;-55
2023/11/22 08:51:27;;;;;;;118.90;12.25;;;;;;;;;;4978020;28;20031;-55
2023/11/22 08:53:52;;;;;;;78.30;9.35;;;;;;;;;;4979944;28;20033;-55
2023/11/22 08:56:18;;;;;;;82.75;9.32;;;;;;;;;;4979893;28;20030;-55
2023/11/22 08:58:43;;;;;;;64.22;8.27;;;;;;;;;;4980309;28;20406;-53
2023/11/22 09:01:08;;;;;;;74.22;9.60;;;;;;;;;;4979883;28;20545;-54
2023/11/22 09:03:34;;;;;;;138.90;13.95;;;;;;;;;;4978746;28;20014;-56
2023/11/22 09:06:00;;;;;;;63.33;8.93;;;;;;;;;;4980414;28;20341;-55
2023/11/22 09:08:25;;;;;;;70.40;10.15;;;;;;;;;;4980428;28;20022;-57
2023/11/22 09:10:50;;;;;;;73.15;9.93;;;;;;;;;;4979687;28;20450;-56
2023/11/22 09:13:16;;;;;;;62.55;7.75;;;;;;;;;;4963808;28;20433;-56
2023/11/22 09:15:42;;;;;;;84.00;10.13;;;;;;;;;;4979194;28;21518;-56
2023/11/22 09:18:08;;;;;;;82.55;10.80;;;;;;;;;;4979897;28;20212;-55
2023/11/22 09:20:33;;;;;;;121.93;13.13;;;;;;;;;;4978860;28;20034;-53
2023/11/22 09:22:58;;;;;;;103.03;11.30;;;;;;;;;;4980850;28;20029;-54
2023/11/22 09:25:24;;;;;;;67.88;10.20;;;;;;;;;;4979153;28;20025;-53
2023/11/22 09:27:52;;;;;;;79.10;11.23;;;;;;;;;;4980895;28;20018;-55
2023/11/22 09:30:42;;;;;;;96.88;9.60;;;;;;;;;;4979233;28;20031;-52
2023/11/22 09:33:06;;;;;;;65.10;10.05;;;;;;;;;;4979961;28;20065;-52
2023/11/22 09:35:32;;;;;;;280.48;52.65;;;;;;;;;;4979041;28;20118;-54
2023/11/22 09:38:01;;;;;;;57.95;8.90;;;;;;;;;;4981108;28;20110;-54
2023/11/22 09:40:28;;;;;;;92.05;7.80;;;;;;;;;;4979118;28;20150;-54
2023/11/22 09:42:55;;;;;;;101.20;8.32;;;;;;;;;;4980576;28;20397;-54
2023/11/22 09:45:21;;;;;;;59.15;8.95;;;;;;;;;;4982406;28;20010;-54
2023/11/22 09:47:46;;;;;;;63.78;8.50;;;;;;;;;;4983348;28;20031;-55
2023/11/22 09:50:19;;;;;;;97.07;9.50;;;;;;;;;;4982860;28;20022;-54
2023/11/22 09:52:45;;;;;;;63.67;8.52;;;;;;;;;;4982930;28;20018;-53
2023/11/22 09:55:11;;;;;;;84.15;8.10;;;;;;;;;;4982003;28;20030;-54
2023/11/22 09:57:38;;;;;;;119.88;11.35;;;;;;;;;;4982485;28;20033;-54
2023/11/22 10:00:05;;;;;;;67.45;7.78;;;;;;;;;;4983259;28;20135;-55
2023/11/22 10:02:31;;;;;;;165.20;14.55;;;;;;;;;;4982066;28;20015;-54
2023/11/22 10:04:57;;;;;;;95.32;19.45;;;;;;;;;;4983126;28;20153;-53
2023/11/22 10:07:22;;;;;;;72.03;10.82;;;;;;;;;;4983345;28;20038;-54
2023/11/22 10:09:48;;;;;;;114.85;11.60;;;;;;;;;;4981032;28;20026;-54
2023/11/22 10:12:20;;;;;;;58.97;9.02;;;;;;;;;;4984554;28;20048;-55
2023/11/22 10:14:46;;;;;;;91.03;10.48;;;;;;;;;;4982791;28;20149;-55
2023/11/22 10:17:11;;;;;;;80.97;9.98;;;;;;;;;;4983263;28;20468;-54
2023/11/22 10:19:36;;;;;;;131.05;13.65;;;;;;;;;;4965440;28;20072;-53
2023/11/22 10:22:05;;;;;;;104.15;11.23;;;;;;;;;;4982892;28;20541;-53
2023/11/22 10:24:34;;;;;;;100.35;12.32;;;;;;;;;;4982920;28;20093;-55
2023/11/22 10:27:00;;;;;;;62.90;9.15;;;;;;;;;;4983349;28;20084;-56
2023/11/22 10:29:25;;;;;;;95.50;10.93;;;;;;;;;;4983417;28;20299;-55
2023/11/22 10:31:51;;;;;;;69.07;8.18;;;;;;;;;;4982119;28;20060;-56
2023/11/22 10:34:19;;;;;;;76.30;8.57;;;;;;;;;;4982734;28;20066;-55
2023/11/22 10:36:44;;;;;;;143.35;10.88;;;;;;;;;;4981034;28;20125;-56
2023/11/22 10:39:16;;;;;;;92.35;9.65;;;;;;;;;;4984517;28;20080;-54
2023/11/22 10:41:41;;;;;;;109.32;11.32;;;;;;;;;;4981972;28;20032;-56
2023/11/22 10:44:08;;;;;;;79.03;8.32;;;;;;;;;;4983958;28;20022;-57
2023/11/22 10:46:33;;;;;;;115.97;11.00;;;;;;;;;;4981911;28;20041;-55
2023/11/22 10:48:58;;;;;;;128.13;10.75;;;;;;;;;;4982123;28;20023;-56
2023/11/22 10:51:26;;;;;;;63.30;6.13;;;;;;;;;;4983619;28;20049;-54
2023/11/22 10:53:52;;;;;;;61.97;8.68;;;;;;;;;;4981455;28;20022;-54
2023/11/22 10:56:19;;;;;;;90.80;9.30;;;;;;;;;;4980596;28;20031;-55
2023/11/22 10:58:48;;;;;;;90.55;9.93;;;;;;;;;;4981442;28;20547;-54
2023/11/22 11:01:16;;;;;;;70.30;7.68;;;;;;;;;;4980771;28;20108;-55
2023/11/22 11:03:48;;;;;;;96.80;9.30;;;;;;;;;;4981230;28;20022;-54
2023/11/22 11:06:15;;;;;;;66.32;8.02;;;;;;;;;;4982525;28;20555;-53
2023/11/22 11:08:41;;;;;;;104.97;10.38;;;;;;;;;;4981667;28;20033;-55
2023/11/22 11:11:07;;;;;;;56.38;7.57;;;;;;;;;;4982012;28;20566;-55
2023/11/22 11:13:32;;;;;;;101.88;9.80;;;;;;;;;;4980596;28;20096;-56
2023/11/22 11:15:58;;;;;;;70.80;8.15;;;;;;;;;;4981461;28;20073;-56
2023/11/22 11:18:24;;;;;;;61.85;7.32;;;;;;;;;;4982221;28;20117;-53
2023/11/22 11:20:50;;;;;;;65.55;8.05;;;;;;;;;;4979942;28;20121;-56
2023/11/22 11:23:25;;;;;;;78.22;9.68;;;;;;;;;;4964832;28;20045;-54
2023/11/22 11:25:53;;;;;;;63.58;8.13;;;;;;;;;;4979068;28;20026;-55
2023/11/22 11:28:19;;;;;;;93.45;10.25;;;;;;;;;;4981376;28;20034;-54
2023/11/22 11:30:45;;;;;;;116.35;11.52;;;;;;;;;;4980793;28;20445;-53
2023/11/22 11:33:16;;;;;;;59.33;7.55;;;;;;;;;;4982301;28;20512;-55
2023/11/22 11:35:52;;;;;;;145.23;12.40;;;;;;;;;;4980010;28;20398;-55
2023/11/22 11:38:19;;;;;;;62.55;8.60;;;;;;;;;;4982401;28;20437;-55
2023/11/22 11:40:54;;;;;;;134.25;10.27;;;;;;;;;;4978497;28;20031;-53
2023/11/22 11:43:38;;;;;;;64.43;6.80;;;;;;;;;;4982704;28;20018;-56
2023/11/22 11:46:08;;;;;;;89.15;9.35;;;;;;;;;;4981159;28;20108;-55
2023/11/22 11:48:33;;;;;;;75.80;8.52;;;;;;;;;;4980579;28;20509;-56
2023/11/22 11:50:58;;;;;;;85.00;8.52;;;;;;;;;;4980642;28;20062;-53
2023/11/22 11:53:23;;;;;;;78.32;6.47;;;;;;;;;;4981582;28;20034;-53
2023/11/22 11:55:51;;;;;;;81.00;8.20;;;;;;;;;;4981456;28;20048;-55
2023/11/22 11:58:17;;;;;;;106.90;16.00;;;;;;;;;;4981600;28;20192;-55
2023/11/22 12:00:42;;;;;;;140.63;12.38;;;;;;;;;;4979319;28;20117;-58
2023/11/22 12:03:10;;;;;;;53.15;5.85;;;;;;;;;;4982125;28;20021;-54
2023/11/22 12:05:37;;;;;;;102.70;8.90;;;;;;;;;;4979512;28;20553;-56
2023/11/22 12:08:02;;;;;;;69.47;7.00;;;;;;;;;;4981106;28;20109;-54
2023/11/22 12:10:28;;;;;;;69.07;7.43;;;;;;;;;;4980063;28;20173;-55
2023/11/22 12:12:53;;;;;;;60.92;5.53;;;;;;;;;;4979523;28;20018;-54
2023/11/22 12:15:18;;;;;;;64.75;6.90;;;;;;;;;;4980924;28;20042;-55
2023/11/22 12:17:44;;;;;;;118.20;10.93;;;;;;;;;;4980050;28;20077;-54
2023/11/22 12:20:13;;;;;;;65.32;7.15;;;;;;;;;;4980897;28;20362;-55
2023/11/22 12:22:40;;;;;;;112.80;10.98;;;;;;;;;;4980915;28;20022;-56
2023/11/22 12:25:06;;;;;;;102.20;8.75;;;;;;;;;;4981166;28;20026;-54
2023/11/22 12:27:31;;;;;;;74.32;8.07;;;;;;;;;;4980053;28;20031;-55
2023/11/22 12:29:57;;;;;;;60.95;7.82;;;;;;;;;;4980000;28;20026;-55
2023/11/22 12:32:25;;;;;;;88.60;9.43;;;;;;;;;;4980695;28;20042;-54
2023/11/22 12:34:52;;;;;;;113.20;9.32;;;;;;;;;;4979613;28;20026;-55
2023/11/22 12:37:21;;;;;;;66.40;6.75;;;;;;;;;;4979369;28;20052;-55
2023/11/22 12:39:48;;;;;;;155.60;11.35;;;;;;;;;;4978543;28;20022;-54
2023/11/22 12:42:13;;;;;;;81.78;8.02;;;;;;;;;;4979781;28;20046;-53
2023/11/22 12:44:49;;;;;;;119.30;10.73;;;;;;;;;;4979460;28;20018;-55
2023/11/22 12:47:15;;;;;;;87.07;8.70;;;;;;;;;;4980206;28;20030;-56
2023/11/22 12:49:47;;;;;;;104.82;7.60;;;;;;;;;;4979685;28;20064;-55
2023/11/22 12:52:13;;;;;;;67.53;6.85;;;;;;;;;;4979330;28;20157;-55
2023/11/22 12:54:38;;;;;;;91.95;8.93;;;;;;;;;;4979594;28;20022;-56
2023/11/22 12:57:10;;;;;;;76.25;7.13;;;;;;;;;;4979564;28;20097;-53
2023/11/22 12:59:35;;;;;;;85.67;7.93;;;;;;;;;;4979846;28;20026;-55
2023/11/22 13:02:00;;;;;;;56.22;5.47;;;;;;;;;;4980006;28;20038;-55
2023/11/22 13:04:26;;;;;;;80.85;7.35;;;;;;;;;;4980448;28;20494;-56
2023/11/22 13:06:51;;;;;;;136.02;10.77;;;;;;;;;;4978086;28;20035;-55
2023/11/22 13:09:17;;;;;;;68.00;7.15;;;;;;;;;;4980897;28;20620;-55
2023/11/22 13:11:46;;;;;;;88.15;7.68;;;;;;;;;;4978305;28;20627;-55
2023/11/22 13:14:14;;;;;;;71.80;6.13;;;;;;;;;;4980385;28;20026;-54
2023/11/22 13:16:39;;;;;;;95.30;8.07;;;;;;;;;;4978484;28;20041;-54
2023/11/22 13:19:05;;;;;;;89.40;8.32;;;;;;;;;;4979046;28;20022;-54
2023/11/22 13:21:31;;;;;;;53.80;6.72;;;;;;;;;;4962158;28;20240;-55
2023/11/22 13:23:58;;;;;;;83.07;7.18;;;;;;;;;;4978647;28;20110;-55
2023/11/22 13:26:24;;;;;;;62.80;6.40;;;;;;;;;;4979890;28;20406;-54
2023/11/22 13:28:49;;;;;;;97.85;9.27;;;;;;;;;;4980564;28;20077;-54
2023/11/22 13:31:14;;;;;;;75.13;6.95;;;;;;;;;;4961761;28;20059;-55
2023/11/22 13:33:43;;;;;;;120.38;9.95;;;;;;;;;;4978405;28;20486;-55
2023/11/22 13:36:08;;;;;;;60.75;5.78;;;;;;;;;;4962446;28;20525;-55
2023/11/22 13:38:34;;;;;;;67.45;5.90;;;;;;;;;;4980549;28;20506;-55
2023/11/22 13:40:59;;;;;;;78.50;7.82;;;;;;;;;;4960312;28;20118;-56
2023/11/22 13:43:25;;;;;;;49.47;6.20;;;;;;;;;;4980424;28;20474;-55
2023/11/22 13:45:51;;;;;;;130.07;10.73;;;;;;;;;;4977627;28;20090;-56
2023/11/22 13:48:16;;;;;;;64.35;6.95;;;;;;;;;;4979869;28;20105;-54
2023/11/22 13:50:42;;;;;;;85.57;6.88;;;;;;;;;;4978612;28;20133;-55
2023/11/22 13:53:10;;;;;;;78.57;7.85;;;;;;;;;;4980363;28;20084;-53
2023/11/22 13:55:37;;;;;;;64.82;6.57;;;;;;;;;;4979873;28;20046;-55
2023/11/22 13:58:03;;;;;;;75.40;7.07;;;;;;;;;;4977430;28;20226;-55
2023/11/22 14:00:33;;;;;;;59.35;7.10;;;;;;;;;;4979322;28;20038;-54
2023/11/22 14:03:04;;;;;;;69.97;7.65;;;;;;;;;;4979576;28;20029;-55
2023/11/22 14:05:29;;;;;;;58.58;6.03;;;;;;;;;;4979366;28;20027;-54
2023/11/22 14:07:55;;;;;;;134.32;11.13;;;;;;;;;;4961342;28;20393;-55
2023/11/22 14:10:22;;;;;;;64.55;7.10;;;;;;;;;;4979061;28;20014;-55
2023/11/22 14:12:48;;;;;;;117.85;9.35;;;;;;;;;;4978257;28;20030;-54